Time;durP1;ratioP1;P1;durP2;ratioP2;P2;SDS_P1;SDS_P2;PMS_P1;PMS_P2;Temp;Humidity;BMP_temperature;BMP_pressure;BME280_temperature;BME280_humidity;BME280_pressure;Samples;Min_cycle;Max_cycle;Signal;HPM_P1;HPM_P2
2022/01/18 00:01:14;;;;;;;;;;;;;;;5.88;41.32;100870.84;4384083;32;19986;-73
2022/01/18 00:03:42;;;;;;;;;;;;;;;5.47;42.21;100867.87;4392096;32;19994;-73
2022/01/18 00:06:09;;;;;;;;;;;;;;;5.00;43.59;100866.19;4384509;32;19982;-74
2022/01/18 00:08:37;;;;;;;;;;;;;;;5.37;42.76;100873.34;4384081;32;19979;-73
2022/01/18 00:11:05;;;;;;;;;;;;;;;5.17;42.80;100873.94;4392709;32;20018;-73
2022/01/18 00:18:34;;;;;;;;;;;;;;;5.41;42.76;100879.50;4401497;32;19990;-74
2022/01/18 00:23:48;;;;;;;;;;;;;;;5.36;43.13;100892.13;4396363;32;20081;-73
2022/01/18 00:26:17;;;;;;;;;;;;;;;5.44;42.58;100903.66;4385343;32;20028;-74
2022/01/18 00:28:50;;;;;;;;;;;;;;;5.35;42.78;100900.59;4385672;32;19986;-73
2022/01/18 00:34:49;;;;;;;;;;;;;;;5.21;42.63;100893.84;4394226;32;20315;-73
2022/01/18 00:36:53;;;;;;;;;;;;;;;5.18;42.66;100907.41;4379570;32;20372;-74
2022/01/18 00:39:20;;;;;;;;;;;;;;;4.88;43.57;100927.09;4385580;32;20005;-73
2022/01/18 00:41:47;;;;;;;;;;;;;;;5.15;43.02;100921.75;4385924;32;20009;-73
2022/01/18 00:44:14;;;;;;;;;;;;;;;4.98;43.32;100924.25;4390738;32;20256;-72
2022/01/18 00:46:41;;;;;;;;;;;;;;;5.21;42.92;100929.78;4388996;32;20028;-73
2022/01/18 00:49:10;;;;;;;;;;;;;;;5.40;42.69;100919.72;4387540;32;20048;-73
2022/01/18 00:51:39;;;;;;;;;;;;;;;5.30;42.85;100918.34;4392287;32;20334;-73
2022/01/18 00:54:06;;;;;;;;;;;;;;;5.04;43.46;100924.63;4387490;32;20012;-73
2022/01/18 00:56:38;;;;;;;;;;;;;;;4.52;45.26;100923.31;4375991;32;20008;-73
2022/01/18 00:59:05;;;;;;;;;;;;;;;4.31;45.90;100928.09;4396445;32;20031;-73
2022/01/18 01:01:34;;;;;;;;;;;;;;;4.72;45.38;100940.72;4385817;32;19979;-73
2022/01/18 01:04:03;;;;;;;;;;;;;;;4.72;45.71;100939.84;4398887;32;20271;-73
2022/01/18 01:06:30;;;;;;;;;;;;;;;4.76;45.49;100947.81;4392380;32;20028;-74
2022/01/18 01:08:57;;;;;;;;;;;;;;;5.03;44.80;100950.16;4385759;32;20037;-73
2022/01/18 01:11:24;;;;;;;;;;;;;;;4.86;45.53;100959.50;4381354;32;19982;-73
2022/01/18 01:13:52;;;;;;;;;;;;;;;5.01;45.75;100962.94;4399983;32;20042;-76
2022/01/18 01:32:47;;;;;;;;;;;;;;;5.15;45.80;100978.22;4400841;32;20703;-73
2022/01/18 01:45:37;;;;;;;;;;;;;;;5.45;44.57;100979.00;4385673;32;19998;-73
2022/01/18 01:48:04;;;;;;;;;;;;;;;5.48;44.69;100974.03;4394150;32;19994;-74
2022/01/18 01:50:43;;;;;;;;;;;;;;;5.35;44.90;100977.62;4371779;32;20000;-73
2022/01/18 01:53:11;;;;;;;;;;;;;;;5.54;44.33;100975.25;4385465;32;20021;-74
2022/01/18 01:55:38;;;;;;;;;;;;;;;5.43;44.51;100983.19;4371018;32;19990;-72
2022/01/18 01:58:06;;;;;;;;;;;;;;;5.15;45.37;100983.34;4377477;32;19986;-73
2022/01/18 02:00:33;;;;;;;;;;;;;;;5.23;45.19;100990.69;4387461;32;20021;-73
2022/01/18 02:03:00;;;;;;;;;;;;;;;5.10;45.48;100996.78;4374867;32;20173;-73
2022/01/18 02:05:28;;;;;;;;;;;;;;;5.42;44.79;100990.00;4385510;32;20856;-73
2022/01/18 02:07:55;;;;;;;;;;;;;;;5.45;44.85;100989.28;4385454;32;20797;-73
2022/01/18 02:10:21;;;;;;;;;;;;;;;5.28;44.96;100996.06;4386994;32;19983;-73
2022/01/18 02:12:49;;;;;;;;;;;;;;;5.44;44.65;101003.81;4391983;32;20396;-74
2022/01/18 02:15:20;;;;;;;;;;;;;;;5.35;44.90;101014.44;4385217;32;20001;-73
2022/01/18 02:23:19;;;;;;;;;;;;;;;5.29;45.20;101014.09;4373535;32;20019;-74
2022/01/18 02:25:46;;;;;;;;;;;;;;;5.29;45.01;101006.41;4394026;32;20711;-74
2022/01/18 02:28:13;;;;;;;;;;;;;;;5.29;45.28;101010.66;4385213;32;20045;-74
2022/01/18 02:30:39;;;;;;;;;;;;;;;5.21;45.46;101009.34;4388830;32;20889;-73
2022/01/18 02:33:06;;;;;;;;;;;;;;;5.26;45.12;101007.91;4390878;32;20004;-73
2022/01/18 02:35:34;;;;;;;;;;;;;;;5.04;45.91;101006.72;4385795;32;20029;-72
2022/01/18 02:38:01;;;;;;;;;;;;;;;5.30;45.33;101009.87;4385710;32;20036;-73
2022/01/18 02:40:29;;;;;;;;;;;;;;;5.12;45.22;101007.16;4393452;32;19990;-73
2022/01/18 02:42:59;;;;;;;;;;;;;;;4.99;45.97;101008.12;4383317;32;20537;-74
2022/01/18 02:45:27;;;;;;;;;;;;;;;4.79;46.70;101003.56;4367703;32;20018;-74
2022/01/18 02:47:54;;;;;;;;;;;;;;;4.95;46.27;101010.44;4355720;32;20351;-72
2022/01/18 02:50:21;;;;;;;;;;;;;;;4.70;46.71;101013.28;4362353;32;20021;-73
2022/01/18 02:52:48;;;;;;;;;;;;;;;5.18;45.24;101006.63;4355214;32;20054;-73
2022/01/18 02:55:15;;;;;;;;;;;;;;;5.08;45.79;101013.78;4360030;32;19983;-74
2022/01/18 02:57:54;;;;;;;;;;;;;;;4.80;46.39;101021.56;4388202;32;20024;-74
2022/01/18 03:00:31;;;;;;;;;;;;;;;5.06;45.62;101023.06;4387480;32;19978;-73
2022/01/18 03:03:15;;;;;;;;;;;;;;;5.09;45.46;101030.94;4390104;32;19974;-73
2022/01/18 03:05:45;;;;;;;;;;;;;;;5.20;45.35;101038.38;4386734;32;19995;-73
2022/01/18 03:08:12;;;;;;;;;;;;;;;4.98;45.71;101036.25;4384925;32;20005;-74
2022/01/18 03:10:40;;;;;;;;;;;;;;;5.25;45.19;101047.22;4384937;32;20245;-74
2022/01/18 03:13:07;;;;;;;;;;;;;;;5.48;44.70;101054.53;4386654;32;20028;-75
2022/01/18 03:15:34;;;;;;;;;;;;;;;5.31;44.94;101052.72;4391428;32;20276;-73
2022/01/18 03:18:07;;;;;;;;;;;;;;;5.01;45.76;101064.66;4384632;32;19985;-74
2022/01/18 03:20:34;;;;;;;;;;;;;;;5.48;44.50;101074.19;4385707;32;20137;-75
2022/01/18 03:23:01;;;;;;;;;;;;;;;5.44;44.98;101078.28;4383008;32;19989;-73
2022/01/18 03:25:39;;;;;;;;;;;;;;;5.51;44.76;101077.81;4384886;32;20002;-73
2022/01/18 03:28:07;;;;;;;;;;;;;;;5.24;45.15;101081.41;4385017;32;19990;-74
2022/01/18 03:30:34;;;;;;;;;;;;;;;5.17;45.32;101090.44;4386915;32;19982;-74
2022/01/18 03:33:01;;;;;;;;;;;;;;;5.35;44.86;101085.44;4375292;32;20041;-74
2022/01/18 03:35:29;;;;;;;;;;;;;;;5.37;45.08;101099.28;4368747;32;19994;-73
2022/01/18 03:37:56;;;;;;;;;;;;;;;5.23;45.19;101103.62;4369274;32;20325;-74
2022/01/18 03:40:23;;;;;;;;;;;;;;;4.84;46.18;101100.47;4355936;32;19990;-75
2022/01/18 03:42:51;;;;;;;;;;;;;;;5.19;45.56;101121.31;4360028;32;20005;-73
2022/01/18 03:45:19;;;;;;;;;;;;;;;5.51;44.55;101121.47;4369562;32;20356;-73
2022/01/18 03:47:46;;;;;;;;;;;;;;;5.54;44.50;101119.06;4371334;32;19991;-73
2022/01/18 03:50:14;;;;;;;;;;;;;;;5.00;46.14;101117.66;4371704;32;20831;-73
2022/01/18 03:52:41;;;;;;;;;;;;;;;5.41;45.00;101126.88;4361350;32;20029;-75
2022/01/18 03:55:09;;;;;;;;;;;;;;;5.34;45.03;101124.78;4371244;32;19986;-73
2022/01/18 03:57:36;;;;;;;;;;;;;;;5.29;45.26;101121.03;4357576;32;19991;-74
2022/01/18 04:00:04;;;;;;;;;;;;;;;4.90;46.06;101131.63;4371826;32;19991;-74
2022/01/18 04:02:37;;;;;;;;;;;;;;;5.15;45.81;101132.19;4370444;32;19997;-73
2022/01/18 04:05:05;;;;;;;;;;;;;;;5.12;45.99;101133.78;4360618;32;21089;-74
2022/01/18 04:07:31;;;;;;;;;;;;;;;5.11;45.94;101126.88;4370213;32;20002;-74
2022/01/18 04:09:58;;;;;;;;;;;;;;;5.52;44.82;101136.09;4371319;32;20114;-74
2022/01/18 04:12:25;;;;;;;;;;;;;;;5.43;44.93;101145.84;4371368;32;20070;-75
2022/01/18 04:14:53;;;;;;;;;;;;;;;5.34;45.16;101150.44;4376635;32;20366;-73
2022/01/18 04:28:20;;;;;;;;;;;;;;;5.19;45.41;101159.81;4370940;32;20004;-73
2022/01/18 04:30:47;;;;;;;;;;;;;;;5.15;45.40;101158.75;4360068;32;20031;-73
2022/01/18 04:33:14;;;;;;;;;;;;;;;4.87;45.99;101157.09;4362363;32;20049;-73
2022/01/18 04:35:41;;;;;;;;;;;;;;;5.07;45.73;101155.75;4371359;32;20034;-74
2022/01/18 04:38:08;;;;;;;;;;;;;;;5.18;45.33;101163.19;4356851;32;20047;-74
2022/01/18 04:40:38;;;;;;;;;;;;;;;5.28;45.25;101160.34;4370959;32;20025;-74
2022/01/18 04:43:27;;;;;;;;;;;;;;;5.16;45.63;101160.50;4372672;32;19974;-74
2022/01/18 04:48:40;;;;;;;;;;;;;;;5.49;45.07;101182.16;4371279;32;20054;-74
2022/01/18 04:51:08;;;;;;;;;;;;;;;5.54;44.92;101185.84;4371294;32;20018;-74
2022/01/18 04:53:38;;;;;;;;;;;;;;;5.48;44.95;101189.75;4379675;32;20020;-74
2022/01/18 04:56:08;;;;;;;;;;;;;;;5.34;45.29;101197.53;4369225;32;20002;-73
2022/01/18 04:58:36;;;;;;;;;;;;;;;5.53;44.79;101194.38;4371954;32;19982;-74
2022/01/18 05:01:04;;;;;;;;;;;;;;;5.62;44.52;101193.13;4377680;32;20045;-74
2022/01/18 05:03:31;;;;;;;;;;;;;;;5.55;44.68;101197.91;4356975;32;19989;-74
2022/01/18 05:06:01;;;;;;;;;;;;;;;5.47;44.89;101194.00;4371109;32;20043;-73
2022/01/18 05:08:27;;;;;;;;;;;;;;;5.45;44.75;101195.59;4370986;32;19998;-73
2022/01/18 05:10:57;;;;;;;;;;;;;;;5.21;45.39;101199.31;4371558;32;20050;-74
2022/01/18 05:21:35;;;;;;;;;;;;;;;5.09;46.08;101215.72;4373226;32;19990;-76
2022/01/18 05:24:02;;;;;;;;;;;;;;;5.18;45.93;101209.38;4378623;32;20004;-78
2022/01/18 05:26:29;;;;;;;;;;;;;;;4.97;46.12;101204.72;4378237;32;20004;-74
2022/01/18 05:28:57;;;;;;;;;;;;;;;5.15;45.91;101204.06;4384719;32;20016;-74
2022/01/18 05:31:24;;;;;;;;;;;;;;;5.36;45.30;101195.97;4391842;32;20001;-75
2022/01/18 05:33:51;;;;;;;;;;;;;;;4.97;46.36;101214.97;4384766;32;19986;-74
2022/01/18 05:36:18;;;;;;;;;;;;;;;5.11;46.13;101219.28;4384888;32;20077;-74
2022/01/18 05:38:45;;;;;;;;;;;;;;;5.09;46.15;101226.00;4384571;32;20259;-73
2022/01/18 05:41:12;;;;;;;;;;;;;;;5.15;46.13;101229.72;4383491;32;19990;-73
2022/01/18 05:43:39;;;;;;;;;;;;;;;5.25;45.81;101239.75;4386933;32;20032;-75
2022/01/18 05:46:06;;;;;;;;;;;;;;;5.23;45.97;101249.03;4392398;32;20346;-74
2022/01/18 05:48:34;;;;;;;;;;;;;;;5.39;45.58;101246.56;4387711;32;20054;-74
2022/01/18 05:51:02;;;;;;;;;;;;;;;5.23;46.18;101249.03;4385470;32;19998;-73
2022/01/18 05:53:34;;;;;;;;;;;;;;;5.32;45.73;101249.59;4385769;32;20018;-76
2022/01/18 05:56:05;;;;;;;;;;;;;;;5.36;45.68;101246.44;4393539;32;20066;-73
2022/01/18 05:58:32;;;;;;;;;;;;;;;5.24;46.15;101248.25;4386827;32;20073;-74
2022/01/18 06:00:58;;;;;;;;;;;;;;;4.96;46.80;101249.12;4392241;32;19978;-73
2022/01/18 06:03:35;;;;;;;;;;;;;;;5.18;46.49;101251.34;4384978;32;20009;-74
2022/01/18 06:08:47;;;;;;;;;;;;;;;5.20;46.44;101254.88;4386983;32;19989;-74
2022/01/18 06:11:14;;;;;;;;;;;;;;;5.11;46.63;101262.91;4392576;32;20033;-73
2022/01/18 06:13:41;;;;;;;;;;;;;;;5.18;46.58;101270.97;4385268;32;20020;-77
2022/01/18 06:16:08;;;;;;;;;;;;;;;5.24;46.26;101264.53;4385524;32;19997;-73
2022/01/18 06:18:35;;;;;;;;;;;;;;;5.29;46.37;101264.81;4385183;32;20318;-74
2022/01/18 06:21:02;;;;;;;;;;;;;;;5.52;45.70;101269.66;4381286;32;19998;-74
2022/01/18 06:23:29;;;;;;;;;;;;;;;5.27;46.41;101268.97;4370130;32;19997;-73
2022/01/18 06:25:58;;;;;;;;;;;;;;;5.29;46.37;101267.37;4370108;32;20045;-74
2022/01/18 06:28:24;;;;;;;;;;;;;;;5.43;46.24;101263.97;4370888;32;19987;-75
2022/01/18 06:30:51;;;;;;;;;;;;;;;5.42;46.28;101264.72;4374128;32;19982;-74
2022/01/18 06:33:18;;;;;;;;;;;;;;;5.21;47.20;101261.78;4375550;32;20001;-72
2022/01/18 06:35:45;;;;;;;;;;;;;;;5.33;46.86;101265.09;4376890;32;20008;-75
2022/01/18 06:38:13;;;;;;;;;;;;;;;5.30;46.91;101261.47;4369110;32;20018;-71
2022/01/18 06:40:40;;;;;;;;;;;;;;;5.27;47.13;101261.28;4370129;32;20037;-73
2022/01/18 06:43:07;;;;;;;;;;;;;;;5.52;46.39;101268.72;4375066;32;20288;-72
2022/01/18 06:45:34;;;;;;;;;;;;;;;5.44;46.58;101270.84;4383461;32;20001;-73
2022/01/18 06:48:01;;;;;;;;;;;;;;;5.41;46.72;101280.06;4382317;32;19995;-72
2022/01/18 06:50:28;;;;;;;;;;;;;;;5.46;46.61;101287.25;4382889;32;19997;-71
2022/01/18 06:52:55;;;;;;;;;;;;;;;5.69;46.30;101298.00;4371939;32;19971;-71
2022/01/18 06:55:22;;;;;;;;;;;;;;;5.85;46.00;101287.81;4371805;32;20018;-71
2022/01/18 06:57:48;;;;;;;;;;;;;;;5.74;46.18;101292.34;4384331;32;19998;-72
2022/01/18 07:00:15;;;;;;;;;;;;;;;5.90;45.99;101288.97;4397433;32;20135;-72
2022/01/18 07:02:43;;;;;;;;;;;;;;;6.14;45.50;101302.38;4391385;32;20046;-71
2022/01/18 07:05:11;;;;;;;;;;;;;;;6.35;45.23;101304.41;4382994;32;20012;-71
2022/01/18 07:07:39;;;;;;;;;;;;;;;6.67;44.25;101298.50;4392694;32;20047;-71
2022/01/18 07:10:06;;;;;;;;;;;;;;;6.94;44.08;101294.84;4370496;32;20000;-71
2022/01/18 07:12:34;;;;;;;;;;;;;;;6.63;44.39;101291.41;4386861;32;19984;-70
2022/01/18 07:15:06;;;;;;;;;;;;;;;7.19;43.39;101285.88;4389867;32;20009;-71
2022/01/18 07:17:33;;;;;;;;;;;;;;;7.48;42.54;101294.22;4375665;32;19982;-71
2022/01/18 07:20:00;;;;;;;;;;;;;;;7.55;42.37;101286.00;4386503;32;19982;-72
2022/01/18 07:22:27;;;;;;;;;;;;;;;7.80;42.34;101293.31;4393304;32;19979;-71
2022/01/18 07:24:57;;;;;;;;;;;;;;;8.15;41.61;101282.16;4389509;32;19983;-71
2022/01/18 07:27:24;;;;;;;;;;;;;;;8.01;41.38;101283.16;4386313;32;20012;-72
2022/01/18 07:29:51;;;;;;;;;;;;;;;8.24;40.97;101285.19;4389602;32;20004;-71
2022/01/18 07:32:18;;;;;;;;;;;;;;;8.29;40.95;101280.25;4392405;32;20000;-74
2022/01/18 07:34:52;;;;;;;;;;;;;;;7.39;42.66;101284.31;4388275;32;20359;-72
2022/01/18 07:37:20;;;;;;;;;;;;;;;7.59;42.46;101278.50;4392092;32;19994;-71
2022/01/18 07:39:48;;;;;;;;;;;;;;;7.48;42.45;101281.34;4386198;32;19978;-70
2022/01/18 07:42:19;;;;;;;;;;;;;;;7.58;42.63;101275.84;4386093;32;20426;-75
2022/01/18 07:44:46;;;;;;;;;;;;;;;7.54;42.62;101281.66;4385614;32;20022;-71
2022/01/18 07:47:13;;;;;;;;;;;;;;;7.33;43.13;101295.19;4386272;32;20561;-71
2022/01/18 07:49:44;;;;;;;;;;;;;;;7.54;42.46;101295.44;4386513;32;20033;-72
2022/01/18 07:52:11;;;;;;;;;;;;;;;7.45;42.75;101301.00;4375279;32;20025;-72
2022/01/18 07:54:38;;;;;;;;;;;;;;;7.56;42.46;101309.28;4372668;32;20013;-72
2022/01/18 07:57:12;;;;;;;;;;;;;;;7.46;43.01;101317.31;4355210;32;20004;-72
2022/01/18 07:59:39;;;;;;;;;;;;;;;7.41;43.18;101327.41;4363619;32;19986;-72
2022/01/18 08:02:06;;;;;;;;;;;;;;;7.51;43.26;101330.47;4353671;32;19974;-71
2022/01/18 08:04:33;;;;;;;;;;;;;;;7.57;43.08;101346.25;4385812;32;19982;-74
2022/01/18 08:07:00;;;;;;;;;;;;;;;7.46;43.56;101341.38;4394595;32;20352;-72
2022/01/18 08:09:27;;;;;;;;;;;;;;;7.43;43.36;101338.69;4386332;32;20023;-72
2022/01/18 08:11:54;;;;;;;;;;;;;;;7.30;44.14;101333.66;4385298;32;19975;-71
2022/01/18 08:14:22;;;;;;;;;;;;;;;7.80;42.64;101334.53;4393495;32;19990;-73
2022/01/18 08:17:00;;;;;;;;;;;;;;;7.89;42.58;101346.22;4386428;32;20024;-72
2022/01/18 08:19:28;;;;;;;;;;;;;;;8.03;42.29;101348.59;4384314;32;19990;-72
2022/01/18 08:21:55;;;;;;;;;;;;;;;8.11;41.81;101360.19;4375039;32;20026;-72
2022/01/18 08:24:22;;;;;;;;;;;;;;;7.89;42.47;101361.69;4385139;32;20037;-72
2022/01/18 08:26:49;;;;;;;;;;;;;;;8.23;41.52;101378.88;4393114;32;19996;-77
2022/01/18 08:29:15;;;;;;;;;;;;;;;8.12;41.84;101374.84;4392565;32;19990;-72
2022/01/18 08:32:04;;;;;;;;;;;;;;;7.92;43.05;101382.47;4392465;32;20670;-72
2022/01/18 08:34:31;;;;;;;;;;;;;;;8.44;41.44;101386.81;4396222;32;20057;-74
2022/01/18 08:36:57;;;;;;;;;;;;;;;8.67;41.32;101387.94;4384934;32;20008;-71
2022/01/18 08:39:25;;;;;;;;;;;;;;;8.91;40.19;101377.03;4385126;32;20045;-72
2022/01/18 08:41:53;;;;;;;;;;;;;;;8.94;40.14;101395.25;4388795;32;19985;-71
2022/01/18 08:44:19;;;;;;;;;;;;;;;8.68;40.42;101394.88;4390187;32;20479;-72
2022/01/18 08:46:46;;;;;;;;;;;;;;;8.79;40.37;101403.16;4387032;32;20776;-71
2022/01/18 08:49:13;;;;;;;;;;;;;;;8.53;40.99;101399.28;4392533;32;20009;-71
2022/01/18 08:51:40;;;;;;;;;;;;;;;8.79;40.66;101416.94;4385785;32;20353;-72
2022/01/18 08:54:08;;;;;;;;;;;;;;;9.06;40.14;101403.56;4385971;32;20792;-71
2022/01/18 08:56:35;;;;;;;;;;;;;;;9.33;39.62;101403.97;4388570;32;20002;-72
2022/01/18 08:59:20;;;;;;;;;;;;;;;9.22;40.18;101411.25;4371607;32;20006;-72
2022/01/18 09:01:47;;;;;;;;;;;;;;;9.36;39.08;101405.81;4370641;32;20799;-73
2022/01/18 09:04:14;;;;;;;;;;;;;;;8.88;40.25;101418.19;4371610;32;20054;-71
2022/01/18 09:06:41;;;;;;;;;;;;;;;8.68;40.70;101420.72;4370936;32;19990;-73
2022/01/18 09:09:09;;;;;;;;;;;;;;;8.73;40.59;101419.22;4368635;32;20054;-71
2022/01/18 09:11:36;;;;;;;;;;;;;;;8.70;40.12;101426.81;4373576;32;19990;-72
2022/01/18 09:14:03;;;;;;;;;;;;;;;8.77;40.18;101423.72;4376212;32;20030;-72
2022/01/18 09:16:30;;;;;;;;;;;;;;;8.75;41.55;101422.75;4379131;32;20114;-75
2022/01/18 09:18:57;;;;;;;;;;;;;;;9.24;40.44;101427.69;4381778;32;20493;-72
2022/01/18 09:21:28;;;;;;;;;;;;;;;9.22;39.86;101431.00;4368871;32;19971;-73
2022/01/18 09:23:55;;;;;;;;;;;;;;;9.00;40.42;101439.47;4378545;32;19988;-72
2022/01/18 09:26:22;;;;;;;;;;;;;;;9.20;39.65;101433.53;4378912;32;19995;-72
2022/01/18 09:28:49;;;;;;;;;;;;;;;9.13;39.58;101444.41;4385275;32;19978;-72
2022/01/18 09:31:15;;;;;;;;;;;;;;;9.17;39.75;101454.06;4380860;32;19990;-72
2022/01/18 09:33:42;;;;;;;;;;;;;;;9.15;39.24;101460.84;4377653;32;20372;-71
2022/01/18 09:36:09;;;;;;;;;;;;;;;8.83;40.45;101457.56;4372792;32;19986;-75
2022/01/18 09:38:36;;;;;;;;;;;;;;;9.08;40.43;101458.78;4372581;32;19982;-72
2022/01/18 09:41:09;;;;;;;;;;;;;;;9.38;39.31;101454.19;4376935;32;19995;-72
2022/01/18 09:43:38;;;;;;;;;;;;;;;9.43;38.80;101450.09;4369980;32;19987;-72
2022/01/18 09:46:05;;;;;;;;;;;;;;;9.19;40.57;101443.78;4381343;32;20367;-72
2022/01/18 09:48:32;;;;;;;;;;;;;;;9.43;39.52;101451.81;4368813;32;20000;-75
2022/01/18 09:50:59;;;;;;;;;;;;;;;9.52;40.04;101447.06;4371858;32;20013;-73
2022/01/18 09:53:26;;;;;;;;;;;;;;;9.27;39.22;101451.09;4369287;32;20026;-73
2022/01/18 09:55:53;;;;;;;;;;;;;;;9.20;38.80;101456.78;4370590;32;19975;-73
2022/01/18 09:58:20;;;;;;;;;;;;;;;9.11;39.50;101448.59;4376903;32;20674;-73
2022/01/18 10:00:49;;;;;;;;;;;;;;;9.04;39.00;101456.87;4371733;32;19996;-79
2022/01/18 10:03:32;;;;;;;;;;;;;;;8.56;40.56;101456.22;4370139;32;20743;-76
2022/01/18 10:06:00;;;;;;;;;;;;;;;8.40;40.36;101449.41;4370904;32;19983;-74
2022/01/18 10:08:33;;;;;;;;;;;;;;;8.42;39.92;101447.78;4377068;32;19990;-73
2022/01/18 10:11:04;;;;;;;;;;;;;;;8.51;40.32;101448.25;4379132;32;20033;-76
2022/01/18 10:13:32;;;;;;;;;;;;;;;8.40;41.54;101443.37;4385411;32;19994;-73
2022/01/18 10:16:09;;;;;;;;;;;;;;;8.72;40.71;101448.44;4382075;32;20006;-73
2022/01/18 10:18:47;;;;;;;;;;;;;;;8.49;40.91;101451.56;4368290;32;20009;-73
2022/01/18 10:21:23;;;;;;;;;;;;;;;8.24;41.53;101455.44;4371862;32;19979;-73
2022/01/18 10:23:51;;;;;;;;;;;;;;;8.73;40.33;101460.53;4379024;32;19997;-73
2022/01/18 10:26:23;;;;;;;;;;;;;;;8.04;40.86;101449.25;4383004;32;20010;-73
2022/01/18 10:29:03;;;;;;;;;;;;;;;8.30;41.07;101453.19;4370218;32;20688;-73
2022/01/18 10:31:40;;;;;;;;;;;;;;;8.65;40.07;101460.94;4378033;32;20497;-74
2022/01/18 10:34:21;;;;;;;;;;;;;;;8.58;40.42;101452.00;4370115;32;19999;-74
2022/01/18 10:36:59;;;;;;;;;;;;;;;7.83;41.76;101461.91;4370186;32;19990;-73
2022/01/18 10:39:31;;;;;;;;;;;;;;;8.14;40.84;101441.19;4370153;32;20050;-73
2022/01/18 10:41:58;;;;;;;;;;;;;;;8.11;41.16;101442.72;4378327;32;20330;-73
2022/01/18 10:44:25;;;;;;;;;;;;;;;8.35;40.63;101441.38;4408850;32;19998;-72
2022/01/18 10:46:53;;;;;;;;;;;;;;;8.23;41.19;101440.78;4398976;32;19986;-72
2022/01/18 10:49:26;;;;;;;;;;;;;;;8.29;40.66;101448.81;4399721;32;20004;-73
2022/01/18 10:51:56;;;;;;;;;;;;;;;8.36;39.97;101448.34;4400268;32;20028;-81
2022/01/18 10:54:33;;;;;;;;;;;;;;;8.42;39.97;101454.63;4383032;32;19991;-72
2022/01/18 10:57:01;;;;;;;;;;;;;;;8.09;39.67;101449.50;4374241;32;20010;-72
2022/01/18 10:59:28;;;;;;;;;;;;;;;7.36;42.70;101465.38;4373764;32;20321;-72
2022/01/18 11:02:04;;;;;;;;;;;;;;;7.73;41.67;101461.34;4369865;32;20004;-72
2022/01/18 11:04:31;;;;;;;;;;;;;;;7.88;41.61;101452.72;4372058;32;20335;-71
2022/01/18 11:06:59;;;;;;;;;;;;;;;7.93;41.00;101451.25;4376610;32;19990;-73
2022/01/18 11:09:26;;;;;;;;;;;;;;;8.24;39.84;101447.72;4369713;32;20024;-73
2022/01/18 11:11:53;;;;;;;;;;;;;;;8.01;40.51;101443.94;4368431;32;20028;-73
2022/01/18 11:14:21;;;;;;;;;;;;;;;8.05;40.86;101461.34;4378060;32;19990;-73
2022/01/18 11:16:48;;;;;;;;;;;;;;;8.53;39.35;101456.06;4368827;32;19983;-73
2022/01/18 11:21:56;;;;;;;;;;;;;;;8.34;40.31;101474.88;4378212;32;19987;-73
2022/01/18 11:24:24;;;;;;;;;;;;;;;8.41;40.44;101465.78;4361472;32;20383;-74
2022/01/18 11:26:51;;;;;;;;;;;;;;;8.19;39.76;101456.00;4369758;32;20003;-72
2022/01/18 11:29:18;;;;;;;;;;;;;;;8.11;39.80;101455.62;4375875;32;19987;-73
2022/01/18 11:31:49;;;;;;;;;;;;;;;8.19;40.63;101462.03;4369390;32;19982;-73
2022/01/18 11:34:28;;;;;;;;;;;;;;;8.35;39.96;101467.19;4368492;32;19979;-73
2022/01/18 11:36:57;;;;;;;;;;;;;;;8.21;40.68;101468.19;4369932;32;19991;-73
2022/01/18 11:39:24;;;;;;;;;;;;;;;8.33;38.79;101462.78;4376920;32;20368;-73
2022/01/18 11:41:51;;;;;;;;;;;;;;;8.20;39.88;101456.09;4368020;32;20745;-73
2022/01/18 11:44:19;;;;;;;;;;;;;;;8.33;40.12;101463.66;4368250;32;20289;-73
2022/01/18 11:46:47;;;;;;;;;;;;;;;7.88;40.82;101477.59;4376966;32;19998;-73
2022/01/18 11:49:15;;;;;;;;;;;;;;;8.12;39.95;101462.53;4368024;32;20001;-73
2022/01/18 11:51:54;;;;;;;;;;;;;;;8.31;40.05;101478.16;4370861;32;19983;-73
2022/01/18 11:57:22;;;;;;;;;;;;;;;8.08;39.87;101483.84;4384344;32;19986;-74
2022/01/18 11:59:49;;;;;;;;;;;;;;;8.16;40.13;101479.94;4384476;32;20046;-74
2022/01/18 12:02:33;;;;;;;;;;;;;;;7.96;40.35;101490.91;4382578;32;19987;-74
2022/01/18 12:05:14;;;;;;;;;;;;;;;7.62;40.68;101474.50;4377121;32;20034;-74
2022/01/18 12:07:44;;;;;;;;;;;;;;;7.53;41.22;101479.19;4371172;32;19999;-73
2022/01/18 12:10:31;;;;;;;;;;;;;;;7.72;40.47;101463.00;4372840;32;19998;-77
2022/01/18 12:13:05;;;;;;;;;;;;;;;7.74;40.78;101469.12;4372666;32;19979;-74
2022/01/18 12:15:32;;;;;;;;;;;;;;;7.73;40.11;101459.66;4370862;32;20324;-74
2022/01/18 12:18:01;;;;;;;;;;;;;;;7.67;40.80;101461.88;4373394;32;20004;-72
2022/01/18 12:20:39;;;;;;;;;;;;;;;7.51;40.92;101464.44;4377525;32;19997;-74
2022/01/18 12:23:17;;;;;;;;;;;;;;;7.71;40.65;101463.81;4378090;32;19994;-77
2022/01/18 12:25:56;;;;;;;;;;;;;;;7.88;40.79;101468.19;4379264;32;20041;-73
2022/01/18 12:28:35;;;;;;;;;;;;;;;7.75;40.47;101465.75;4371334;32;20349;-73
2022/01/18 12:31:23;;;;;;;;;;;;;;;7.78;40.51;101472.75;4383835;32;20001;-72
2022/01/18 12:33:51;;;;;;;;;;;;;;;8.09;39.95;101457.22;4375241;32;19967;-74
2022/01/18 12:36:28;;;;;;;;;;;;;;;8.31;39.71;101470.41;4375945;32;20038;-74
2022/01/18 12:39:02;;;;;;;;;;;;;;;8.25;39.49;101464.06;4379290;32;19986;-76
2022/01/18 12:41:46;;;;;;;;;;;;;;;8.09;39.88;101475.28;4370863;32;19991;-76
2022/01/18 12:44:22;;;;;;;;;;;;;;;8.05;39.68;101476.81;4373627;32;19971;-74
2022/01/18 12:46:52;;;;;;;;;;;;;;;8.02;40.57;101475.78;4374396;32;19983;-75
2022/01/18 12:49:22;;;;;;;;;;;;;;;8.18;40.48;101490.34;4373257;32;20092;-74
2022/01/18 12:52:08;;;;;;;;;;;;;;;8.55;39.68;101488.91;4376804;32;19990;-73
2022/01/18 12:54:39;;;;;;;;;;;;;;;8.15;40.86;101468.75;4387579;32;20783;-75
2022/01/18 12:57:12;;;;;;;;;;;;;;;8.21;40.51;101472.47;4397271;32;20334;-73
2022/01/18 12:59:58;;;;;;;;;;;;;;;8.54;39.37;101478.47;4394184;32;20768;-74
2022/01/18 13:02:25;;;;;;;;;;;;;;;8.57;39.19;101465.72;4382069;32;20373;-74
2022/01/18 13:05:03;;;;;;;;;;;;;;;8.17;40.34;101502.38;4396943;32;20027;-73
2022/01/18 13:07:30;;;;;;;;;;;;;;;8.31;40.29;101496.22;4379489;32;20050;-73
2022/01/18 13:09:58;;;;;;;;;;;;;;;8.35;40.01;101482.66;4379186;32;19978;-79
2022/01/18 13:12:35;;;;;;;;;;;;;;;8.49;39.44;101487.72;4392977;32;20008;-74
2022/01/18 13:15:05;;;;;;;;;;;;;;;8.29;39.86;101482.34;4397464;32;20029;-79
2022/01/18 13:23:18;;;;;;;;;;;;;;;7.86;41.13;101490.41;4398685;32;20287;-73
2022/01/18 13:25:51;;;;;;;;;;;;;;;7.79;41.59;101496.06;4382283;32;19979;-75
2022/01/18 13:28:18;;;;;;;;;;;;;;;8.45;40.21;101483.16;4394461;32;20030;-75
2022/01/18 13:30:45;;;;;;;;;;;;;;;7.99;41.39;101491.09;4381348;32;20292;-76
2022/01/18 13:33:14;;;;;;;;;;;;;;;8.36;40.11;101484.47;4395280;32;19982;-74
2022/01/18 13:35:41;;;;;;;;;;;;;;;8.22;40.36;101495.75;4378677;32;19974;-76
2022/01/18 13:38:08;;;;;;;;;;;;;;;8.12;40.91;101503.81;4397439;32;20020;-76
2022/01/18 13:40:41;;;;;;;;;;;;;;;7.84;41.64;101504.03;4393709;32;20032;-75
2022/01/18 13:43:11;;;;;;;;;;;;;;;8.11;41.19;101491.72;4396795;32;19992;-74
2022/01/18 13:45:39;;;;;;;;;;;;;;;8.18;41.02;101493.81;4087866;32;10001188;-75
2022/01/18 13:48:08;;;;;;;;;;;;;;;8.24;40.93;101478.66;4384512;32;19962;-75
2022/01/18 13:50:39;;;;;;;;;;;;;;;8.10;41.15;101505.41;4380485;32;19982;-74
2022/01/18 13:53:08;;;;;;;;;;;;;;;8.11;41.13;101497.78;4393213;32;20095;-75
2022/01/18 13:55:36;;;;;;;;;;;;;;;7.75;42.25;101496.69;4399178;32;20069;-74
2022/01/18 13:58:03;;;;;;;;;;;;;;;7.48;42.95;101490.91;4392109;32;20320;-74
2022/01/18 14:00:30;;;;;;;;;;;;;;;7.77;42.60;101500.22;4392890;32;19994;-75
2022/01/18 14:02:58;;;;;;;;;;;;;;;7.71;42.12;101515.37;4397283;32;20004;-76
2022/01/18 14:05:25;;;;;;;;;;;;;;;7.83;41.85;101516.03;4378382;32;19986;-75
2022/01/18 14:08:04;;;;;;;;;;;;;;;7.14;44.13;101524.19;4377012;32;20721;-74
2022/01/18 14:10:31;;;;;;;;;;;;;;;7.11;44.23;101513.72;4399424;32;21797;-74
2022/01/18 14:12:59;;;;;;;;;;;;;;;7.72;42.50;101519.72;4391298;32;20040;-74
2022/01/18 14:15:35;;;;;;;;;;;;;;;7.48;43.42;101515.81;4383278;32;19992;-74